createdAt,value
2018-10-11T04:30:57.965Z,34.07
2018-10-11T04:33:26.335Z,33.87
2018-10-11T04:35:54.299Z,34.77
2018-10-11T04:38:22.195Z,33.00
2018-10-11T04:40:50.129Z,33.23
2018-10-11T04:43:18.167Z,37.70
2018-10-11T04:45:46.036Z,35.73
2018-10-11T04:48:14.025Z,35.70
2018-10-11T04:50:43.468Z,37.63
2018-10-11T04:53:12.348Z,35.03
2018-10-11T04:55:40.618Z,36.00
2018-10-11T04:58:08.559Z,35.57
2018-10-11T05:00:36.531Z,37.40
2018-10-11T05:03:04.479Z,37.73
2018-10-11T05:05:32.410Z,36.30
2018-10-11T05:08:00.440Z,39.77
2018-10-11T05:10:28.407Z,38.70
2018-10-11T05:12:56.612Z,37.23
2018-10-11T05:15:25.081Z,39.37
2018-10-11T05:17:53.010Z,41.60
2018-10-11T05:20:20.928Z,40.43
2018-10-11T05:22:48.861Z,41.60
2018-10-11T05:25:17.012Z,43.13
2018-10-11T05:27:44.928Z,43.67
2018-10-11T05:30:12.896Z,43.30
2018-10-11T05:32:40.600Z,42.90
2018-10-11T05:35:08.520Z,41.90
2018-10-11T05:37:36.520Z,42.27
2018-10-11T05:40:04.440Z,40.77
2018-10-11T05:42:32.390Z,38.70
2018-10-11T05:45:01.340Z,38.23
2018-10-11T05:47:29.263Z,39.77
2018-10-11T05:49:57.180Z,38.50
2018-10-11T05:52:25.101Z,38.00
2018-10-11T05:54:53.025Z,39.50
2018-10-11T05:57:21.188Z,39.30
2018-10-11T05:59:49.108Z,38.57
2018-10-11T06:02:17.039Z,38.70
2018-10-11T06:04:44.966Z,38.23
2018-10-11T06:07:12.891Z,40.47
2018-10-11T06:09:40.808Z,37.80
2018-10-11T06:12:08.830Z,38.90
2018-10-11T06:14:36.643Z,37.10
2018-10-11T06:17:04.577Z,38.47
2018-10-11T06:19:32.522Z,37.87
2018-10-11T06:22:00.448Z,35.97
2018-10-11T06:24:28.384Z,37.90
2018-10-11T06:26:55.820Z,37.63
2018-10-11T06:29:23.741Z,37.20
2018-10-11T06:31:51.660Z,33.97
2018-10-11T06:34:19.591Z,36.20
2018-10-11T06:36:47.519Z,35.50
2018-10-11T06:39:15.532Z,34.87
2018-10-11T06:41:43.517Z,32.07
2018-10-11T06:44:11.408Z,32.80
2018-10-11T07:27:46.683Z,19.20
2018-10-11T07:30:14.772Z,20.17
2018-10-11T07:32:42.751Z,20.13
2018-10-11T07:35:10.858Z,19.73
2018-10-11T07:37:38.700Z,20.77
2018-10-11T07:40:06.856Z,22.40
2018-10-11T07:42:34.812Z,20.30
2018-10-11T07:45:02.784Z,21.90
2018-10-11T07:47:30.733Z,23.17
2018-10-11T07:49:58.656Z,21.17
2018-10-11T07:52:26.711Z,20.07
2018-10-11T07:54:54.660Z,18.80
2018-10-11T07:57:22.624Z,19.63
2018-10-11T07:59:50.563Z,17.50
2018-10-11T08:02:18.495Z,19.47
2018-10-11T08:04:46.403Z,18.60
2018-10-11T08:07:14.391Z,21.03
2018-10-11T08:09:42.248Z,18.00
2018-10-11T08:12:10.182Z,19.00
2018-10-11T08:14:38.104Z,17.70
2018-10-11T08:17:06.701Z,16.00
2018-10-11T08:19:34.432Z,17.30
2018-10-11T08:22:02.319Z,16.63
2018-10-11T08:24:30.420Z,15.97
2018-10-11T08:26:59.329Z,18.50
2018-10-11T08:29:27.376Z,12.90
2018-10-11T08:31:55.291Z,12.43
2018-10-11T08:34:23.292Z,13.23
2018-10-11T08:36:51.211Z,13.57
2018-10-11T08:39:19.156Z,13.30
2018-10-11T08:41:47.111Z,12.17
2018-10-11T08:44:15.107Z,12.63
2018-10-11T08:46:43.107Z,14.73
2018-10-11T08:49:11.198Z,12.60
2018-10-11T08:51:39.095Z,12.97
2018-10-11T08:54:12.616Z,13.33
2018-10-11T08:56:40.663Z,13.27
2018-10-11T08:59:08.579Z,12.00
2018-10-11T09:01:36.512Z,12.60
2018-10-11T09:04:04.579Z,13.10
2018-10-11T09:06:32.436Z,12.67
2018-10-11T09:09:00.408Z,12.83
2018-10-11T09:11:28.435Z,12.83
2018-10-11T09:13:56.343Z,13.23
2018-10-11T09:16:24.316Z,12.40
2018-10-11T09:18:52.283Z,12.33
2018-10-11T09:21:20.718Z,12.33
2018-10-11T09:23:48.169Z,12.40
2018-10-11T09:26:16.123Z,11.10
2018-10-11T09:28:43.639Z,10.63
2018-10-11T09:31:11.619Z,10.13
2018-10-11T09:33:39.588Z,9.77
2018-10-11T09:36:07.556Z,11.43
2018-10-11T09:38:35.492Z,10.10
2018-10-11T09:41:03.808Z,9.30
2018-10-11T09:43:31.767Z,9.50
2018-10-11T09:45:59.760Z,9.37
2018-10-11T09:48:27.710Z,9.47
2018-10-11T09:50:55.724Z,8.93
2018-10-11T09:53:23.624Z,7.93
2018-10-11T09:55:51.552Z,8.67
2018-10-11T09:58:19.467Z,8.00
2018-10-11T10:00:53.043Z,8.17
2018-10-11T10:03:21.056Z,9.87
2018-10-11T10:05:49.027Z,11.10
2018-10-11T10:08:16.975Z,9.50
2018-10-11T10:10:45.072Z,8.77
2018-10-11T10:13:12.999Z,7.63
2018-10-11T10:15:41.097Z,8.30
2018-10-11T10:18:09.090Z,8.50
2018-10-11T10:20:37.034Z,9.30
2018-10-11T10:23:04.980Z,8.90
2018-10-11T10:25:33.083Z,8.50
2018-10-11T10:28:01.044Z,8.40
2018-10-11T10:30:34.483Z,9.27
2018-10-11T10:33:02.411Z,8.10
2018-10-11T10:35:30.332Z,8.17
2018-10-11T10:37:58.240Z,7.83
2018-10-11T10:40:26.241Z,8.90
2018-10-11T10:42:53.700Z,10.10
2018-10-11T10:45:21.604Z,9.90
2018-10-11T10:47:49.644Z,9.33
2018-10-11T10:50:17.600Z,12.50
2018-10-11T10:52:45.551Z,13.07
2018-10-11T10:55:13.538Z,13.33
2018-10-11T10:57:41.550Z,14.33
2018-10-11T11:00:09.488Z,12.43
2018-10-11T11:02:37.420Z,13.07
2018-10-11T11:05:05.367Z,12.50
2018-10-11T11:07:33.264Z,13.27
2018-10-11T11:10:01.264Z,13.77
2018-10-11T11:12:29.290Z,13.93
2018-10-11T11:14:57.729Z,15.50
2018-10-11T11:17:25.276Z,13.40
2018-10-11T11:19:53.301Z,15.20
2018-10-11T11:22:21.308Z,15.30
2018-10-11T11:24:49.240Z,13.77
2018-10-11T11:27:16.712Z,14.43
2018-10-11T11:29:44.642Z,13.30
2018-10-11T11:32:12.583Z,12.80
2018-10-11T11:34:40.492Z,14.23
2018-10-11T11:37:08.428Z,14.23
2018-10-11T11:39:36.376Z,13.53
2018-10-11T11:42:04.320Z,13.00
2018-10-11T11:44:32.324Z,13.20
2018-10-11T11:47:00.252Z,13.03
2018-10-11T11:49:28.322Z,12.50
2018-10-11T11:51:56.293Z,13.13
2018-10-11T11:54:24.293Z,11.47
2018-10-11T11:56:52.704Z,12.50
2018-10-11T11:59:20.628Z,11.97
2018-10-11T12:01:48.792Z,12.30
2018-10-11T12:04:16.720Z,12.10
2018-10-11T12:06:44.651Z,11.60
2018-10-11T12:09:13.584Z,11.67
2018-10-11T12:11:41.788Z,11.50
2018-10-11T12:14:09.712Z,10.27
2018-10-11T12:16:38.055Z,11.67
2018-10-11T12:19:06.164Z,11.73
2018-10-11T12:21:34.113Z,10.90
2018-10-11T12:24:02.088Z,11.97
2018-10-11T12:26:30.068Z,9.80
2018-10-11T12:28:57.614Z,11.50
2018-10-11T12:31:25.500Z,12.07
2018-10-11T12:33:53.411Z,11.10
2018-10-11T12:36:21.373Z,11.63
2018-10-11T12:38:49.554Z,10.90
2018-10-11T12:41:17.481Z,12.70
2018-10-11T12:43:46.231Z,11.03
2018-10-11T12:46:13.335Z,12.97
2018-10-11T12:48:41.333Z,10.57
2018-10-11T12:51:09.239Z,10.53
2018-10-11T12:53:41.119Z,10.23
2018-10-11T12:56:05.154Z,10.03
2018-10-11T12:58:33.080Z,10.80
2018-10-11T13:01:01.107Z,10.03
2018-10-11T13:03:29.035Z,8.10
2018-10-11T13:05:56.896Z,9.63
2018-10-11T13:08:25.051Z,9.37
2018-10-11T13:10:53.004Z,8.77
2018-10-11T13:13:21.030Z,9.07
2018-10-11T13:15:48.991Z,9.30
2018-10-11T13:18:16.988Z,8.83
2018-10-11T13:20:44.981Z,10.47
2018-10-11T13:23:15.756Z,8.90
2018-10-11T13:25:40.824Z,8.97
2018-10-11T13:28:08.760Z,8.87
2018-10-11T13:30:36.885Z,9.60
2018-10-11T13:33:04.820Z,8.60
2018-10-11T13:35:32.758Z,10.47
2018-10-11T13:38:00.762Z,8.57
2018-10-11T13:40:28.766Z,10.23
2018-10-11T13:42:56.660Z,8.60
2018-10-11T13:45:24.576Z,8.90
2018-10-11T13:47:52.556Z,8.50
2018-10-11T13:50:20.500Z,8.47
2018-10-11T13:52:48.501Z,8.70
2018-10-11T13:55:16.400Z,8.03
2018-10-11T13:57:44.311Z,6.97
2018-10-11T14:00:12.246Z,7.57
2018-10-11T14:02:40.182Z,8.13
2018-10-11T14:05:08.123Z,8.33
2018-10-11T14:07:36.091Z,7.73
2018-10-11T14:10:04.032Z,7.70
2018-10-11T14:12:31.948Z,7.07
2018-10-11T14:14:59.912Z,7.70
2018-10-11T14:17:27.885Z,7.67
2018-10-11T14:19:55.826Z,7.83
2018-10-11T14:22:23.795Z,6.33
2018-10-11T14:24:51.711Z,7.10
2018-10-11T14:27:19.619Z,7.30
2018-10-11T14:29:48.526Z,7.47
2018-10-11T14:32:16.436Z,7.00
2018-10-11T14:34:44.436Z,7.43
2018-10-11T14:37:12.566Z,7.10
2018-10-11T14:39:40.353Z,7.33
2018-10-11T14:42:08.291Z,6.60
2018-10-11T14:44:36.181Z,7.30
2018-10-11T14:47:04.161Z,6.90
2018-10-11T14:49:32.076Z,6.37
2018-10-11T14:52:00.025Z,7.27
2018-10-11T14:54:31.651Z,6.50
2018-10-11T14:56:59.696Z,7.20
2018-10-11T14:59:27.662Z,6.77
2018-10-11T15:01:55.631Z,6.90
2018-10-11T15:04:23.549Z,6.13
2018-10-11T15:06:51.630Z,7.17
2018-10-11T15:09:19.463Z,6.10
2018-10-11T15:11:48.334Z,7.00
2018-10-11T15:14:16.246Z,7.23
2018-10-11T15:16:44.257Z,9.27
2018-10-11T15:19:12.220Z,8.70
2018-10-11T15:21:40.196Z,7.87
2018-10-11T15:24:08.128Z,7.93
2018-10-11T15:26:36.052Z,7.50
2018-10-11T15:29:03.990Z,8.73
2018-10-11T15:31:32.034Z,10.20
2018-10-11T15:34:00.064Z,8.50
2018-10-11T15:36:28.112Z,8.10
2018-10-11T15:38:56.035Z,10.00
2018-10-11T15:41:24.019Z,7.93
2018-10-11T15:43:52.024Z,7.83
2018-10-11T15:46:20.059Z,7.90
2018-10-11T15:48:48.065Z,7.60
2018-10-11T15:51:15.936Z,7.40
2018-10-11T15:53:43.895Z,7.40
2018-10-11T15:56:11.812Z,7.07
2018-10-11T15:58:39.839Z,9.00
2018-10-11T16:01:07.690Z,7.97
2018-10-11T16:03:35.671Z,9.20
2018-10-11T16:06:03.667Z,8.50
2018-10-11T16:08:31.625Z,8.70
2018-10-11T16:10:59.583Z,7.83
2018-10-11T16:13:27.556Z,9.00
2018-10-11T16:15:55.555Z,9.30
2018-10-11T16:18:23.603Z,8.50
2018-10-11T16:20:51.540Z,9.13
2018-10-11T16:23:19.539Z,8.30
2018-10-11T16:25:47.541Z,6.97
2018-10-11T16:28:15.541Z,9.87
2018-10-11T16:30:43.617Z,8.90
2018-10-11T16:33:11.689Z,8.70
2018-10-11T16:35:39.698Z,9.30
2018-10-11T16:38:07.914Z,9.40
2018-10-11T16:40:35.968Z,9.03
2018-10-11T16:43:03.928Z,11.10
2018-10-11T16:45:31.879Z,10.40
2018-10-11T16:47:59.884Z,10.27
2018-10-11T16:50:27.820Z,8.87
2018-10-11T16:52:55.752Z,8.30
2018-10-11T16:55:23.696Z,8.17
2018-10-11T16:57:51.665Z,8.00
2018-10-11T17:00:19.636Z,8.43
2018-10-11T17:02:47.562Z,8.33
2018-10-11T17:05:15.544Z,8.07
2018-10-11T17:07:43.545Z,9.97
2018-10-11T17:10:11.538Z,8.50
2018-10-11T17:12:39.436Z,9.30
2018-10-11T17:15:07.455Z,8.57
2018-10-11T17:17:35.384Z,9.53
2018-10-11T17:20:03.345Z,9.70
2018-10-11T17:22:31.289Z,9.57
2018-10-11T17:24:59.304Z,8.70
2018-10-11T17:27:27.246Z,8.33
2018-10-11T17:29:55.236Z,9.00
2018-10-11T17:32:23.199Z,10.27
2018-10-11T17:34:51.404Z,9.73
2018-10-11T17:37:19.371Z,9.10
2018-10-11T17:39:47.288Z,8.00
2018-10-11T17:42:15.371Z,8.17
2018-10-11T17:44:43.236Z,9.23
2018-10-11T17:47:11.195Z,8.80
2018-10-11T17:49:39.186Z,10.03
2018-10-11T17:52:07.133Z,9.40
2018-10-11T17:54:35.148Z,8.27
2018-10-11T17:57:03.172Z,8.00
2018-10-11T17:59:31.316Z,7.70
2018-10-11T18:01:59.239Z,8.50
2018-10-11T18:04:27.212Z,10.30
2018-10-11T18:06:55.162Z,9.03
2018-10-11T18:09:23.168Z,8.47
2018-10-11T18:11:51.111Z,7.97
2018-10-11T18:14:19.067Z,9.10
2018-10-11T18:16:46.992Z,10.10
2018-10-11T18:19:15.038Z,12.10
2018-10-11T18:21:43.110Z,12.20
2018-10-11T18:24:11.069Z,13.17
2018-10-11T18:26:39.003Z,15.87
2018-10-11T18:29:08.445Z,29.17
2018-10-11T18:31:36.420Z,26.53
2018-10-11T18:34:04.452Z,22.93
2018-10-11T18:36:32.432Z,38.67
2018-10-11T18:39:00.367Z,17.90
2018-10-11T18:41:28.299Z,17.10
2018-10-11T18:43:57.208Z,18.03
2018-10-11T18:46:25.149Z,19.43
2018-10-11T18:48:53.126Z,18.57
2018-10-11T18:51:21.040Z,17.10
2018-10-11T18:53:48.972Z,19.43
2018-10-11T18:56:16.905Z,20.30
2018-10-11T18:58:44.836Z,21.53
2018-10-11T19:01:12.793Z,18.93
2018-10-11T19:03:40.737Z,16.50
2018-10-11T19:06:08.676Z,15.43
2018-10-11T19:08:36.648Z,18.40
2018-10-11T19:11:04.612Z,55.00
2018-10-11T19:13:32.684Z,16.23
2018-10-11T19:16:00.625Z,15.10
2018-10-11T19:18:28.725Z,13.47
2018-10-11T19:20:56.746Z,12.50
2018-10-11T19:23:24.607Z,13.03
2018-10-11T19:25:52.544Z,12.00
2018-10-11T19:28:20.876Z,12.90
2018-10-11T19:30:49.473Z,13.37
2018-10-11T19:33:17.416Z,13.80
2018-10-11T19:35:45.351Z,12.30
2018-10-11T19:38:13.452Z,13.53
2018-10-11T19:40:41.533Z,16.87
2018-10-11T19:43:09.604Z,13.63
2018-10-11T19:45:37.824Z,12.67
2018-10-11T19:48:05.854Z,14.27
2018-10-11T19:50:34.084Z,11.40
2018-10-11T19:53:01.984Z,12.07
2018-10-11T19:55:29.913Z,11.10
2018-10-11T19:57:57.985Z,10.70
2018-10-11T20:00:26.011Z,14.17
2018-10-11T20:02:53.951Z,11.30
2018-10-11T20:05:22.160Z,12.43
2018-10-11T20:07:50.115Z,10.87
2018-10-11T20:10:18.024Z,10.43
2018-10-11T20:12:45.947Z,10.97
2018-10-11T20:15:13.906Z,10.10
2018-10-11T20:17:41.872Z,11.13
2018-10-11T20:20:09.914Z,9.87
2018-10-11T20:22:37.820Z,11.20
2018-10-11T20:25:05.999Z,11.90
2018-10-11T20:27:33.996Z,10.33
2018-10-11T20:30:01.929Z,11.63
2018-10-11T20:32:29.593Z,10.20
2018-10-11T20:34:57.538Z,10.93
2018-10-11T20:37:25.512Z,11.20
2018-10-11T20:39:53.474Z,11.40
2018-10-11T20:42:21.482Z,11.27
2018-10-11T20:44:50.022Z,12.20
2018-10-11T20:47:18.037Z,11.37
2018-10-11T20:49:46.021Z,11.27
2018-10-11T20:52:14.059Z,11.17
2018-10-11T20:54:43.784Z,11.43
2018-10-11T20:57:11.879Z,11.53
2018-10-11T20:59:39.720Z,11.00
2018-10-11T21:02:07.663Z,11.57
2018-10-11T21:04:35.722Z,11.57
2018-10-11T21:07:03.796Z,11.77
2018-10-11T21:09:31.698Z,10.53
2018-10-11T21:11:59.760Z,11.87
2018-10-11T21:14:27.703Z,11.20
2018-10-11T21:16:55.777Z,11.30
2018-10-11T21:19:23.686Z,12.97
2018-10-11T21:21:51.604Z,11.00
2018-10-11T21:24:19.793Z,11.77
2018-10-11T21:26:47.859Z,11.53
2018-10-11T21:29:16.084Z,10.30
2018-10-11T21:31:44.044Z,10.90
2018-10-11T21:34:12.028Z,11.83
2018-10-11T21:36:39.980Z,11.70
2018-10-11T21:39:08.584Z,10.97
2018-10-11T21:41:36.512Z,10.00
2018-10-11T21:44:04.432Z,13.30
2018-10-11T21:46:32.375Z,12.43
2018-10-11T21:49:00.321Z,12.73
2018-10-11T21:51:28.440Z,11.77
2018-10-11T21:53:56.471Z,11.73
2018-10-11T21:56:24.396Z,11.70
2018-10-11T21:58:52.460Z,11.20
2018-10-11T22:01:21.961Z,11.00
2018-10-11T22:03:50.123Z,11.63
2018-10-11T22:06:18.208Z,9.90
2018-10-11T22:08:46.128Z,11.07
2018-10-11T22:11:14.054Z,11.70
2018-10-11T22:13:42.308Z,8.50
2018-10-11T22:16:10.835Z,9.70
2018-10-11T22:18:39.512Z,9.90
2018-10-11T22:21:07.996Z,9.40
2018-10-11T22:23:36.053Z,9.80
2018-10-11T22:26:03.976Z,10.10
2018-10-11T22:28:31.949Z,9.63
2018-10-11T22:31:01.464Z,9.40
2018-10-11T22:33:29.496Z,9.50
2018-10-11T22:35:57.491Z,9.43
2018-10-11T22:38:25.411Z,10.30
2018-10-11T22:40:53.428Z,10.67
2018-10-11T22:43:21.400Z,10.53
